BAW12 EGCC-EGLL
Flight info
| Callsign | BAW12 |
|---|---|
| Flight time | 0h 37m |
| Altitude | 19000 |
| Route | SANBA N859 HON |
| Aircraft | A20N/M-SDE2E3FGHIRWXY/LB1 |
Departure
| Time | 2026-05-01 14:43 |
|---|---|
| Airport | Manchester Airport (EGCC) |
Arrival
| Time | 2026-05-01 15:20 |
|---|---|
| Airport | London Heathrow Airport (EGLL) |
| Time | Latitude | Longitude | Altitude | Speed | Heading |
|---|---|---|---|---|---|
| 2026-05-01 14:17 | 53.36262 | -2.28402 | 240 ft | 0 kts | 224° |
| 2026-05-01 14:24 | 53.36263 | -2.28400 | 240 ft | 1 kts | 224° |
| 2026-05-01 14:24 | 53.36268 | -2.28393 | 240 ft | 1 kts | 224° |
| 2026-05-01 14:25 | 53.36272 | -2.28386 | 240 ft | 2 kts | 224° |
| 2026-05-01 14:25 | 53.36283 | -2.28368 | 240 ft | 3 kts | 223° |
| 2026-05-01 14:25 | 53.36297 | -2.28346 | 240 ft | 3 kts | 223° |
| 2026-05-01 14:25 | 53.36315 | -2.28324 | 240 ft | 3 kts | 200° |
| 2026-05-01 14:26 | 53.36336 | -2.28318 | 241 ft | 3 kts | 169° |
| 2026-05-01 14:26 | 53.36358 | -2.28334 | 241 ft | 0 kts | 137° |
| 2026-05-01 14:32 | 53.36350 | -2.28321 | 241 ft | 6 kts | 137° |
| 2026-05-01 14:32 | 53.36305 | -2.28250 | 241 ft | 10 kts | 136° |
| 2026-05-01 14:32 | 53.36289 | -2.28223 | 241 ft | 4 kts | 134° |
| 2026-05-01 14:33 | 53.36258 | -2.28170 | 241 ft | 7 kts | 134° |
| 2026-05-01 14:33 | 53.36206 | -2.28080 | 241 ft | 10 kts | 134° |
| 2026-05-01 14:33 | 53.36180 | -2.28037 | 241 ft | 13 kts | 135° |
| 2026-05-01 14:33 | 53.36128 | -2.27950 | 241 ft | 6 kts | 133° |
| 2026-05-01 14:34 | 53.36118 | -2.27928 | 241 ft | 0 kts | 128° |
| 2026-05-01 14:34 | 53.36082 | -2.27877 | 241 ft | 1 kts | 138° |
| 2026-05-01 14:34 | 53.36032 | -2.27831 | 241 ft | 13 kts | 162° |
| 2026-05-01 14:34 | 53.35932 | -2.27844 | 240 ft | 15 kts | 187° |
| 2026-05-01 14:35 | 53.35874 | -2.27842 | 240 ft | 16 kts | 160° |
| 2026-05-01 14:35 | 53.35806 | -2.27719 | 240 ft | 15 kts | 131° |
| 2026-05-01 14:35 | 53.35759 | -2.27660 | 240 ft | 2 kts | 168° |
| 2026-05-01 14:35 | 53.35731 | -2.27639 | 240 ft | 0 kts | 155° |
| 2026-05-01 14:36 | 53.35730 | -2.27639 | 240 ft | 0 kts | 155° |
| 2026-05-01 14:36 | 53.35699 | -2.27622 | 240 ft | 12 kts | 166° |
| 2026-05-01 14:36 | 53.35620 | -2.27521 | 240 ft | 17 kts | 141° |
| 2026-05-01 14:36 | 53.35592 | -2.27484 | 240 ft | 4 kts | 142° |
| 2026-05-01 14:37 | 53.35571 | -2.27456 | 240 ft | 0 kts | 141° |
| 2026-05-01 14:39 | 53.35560 | -2.27442 | 240 ft | 7 kts | 141° |
| 2026-05-01 14:40 | 53.35479 | -2.27332 | 242 ft | 20 kts | 141° |
| 2026-05-01 14:40 | 53.35371 | -2.27196 | 240 ft | 16 kts | 162° |
| 2026-05-01 14:40 | 53.35275 | -2.27204 | 239 ft | 15 kts | 188° |
| 2026-05-01 14:40 | 53.35213 | -2.27228 | 239 ft | 1 kts | 194° |
| 2026-05-01 14:41 | 53.35191 | -2.27237 | 238 ft | 5 kts | 193° |
| 2026-05-01 14:41 | 53.35146 | -2.27253 | 239 ft | 5 kts | 190° |
| 2026-05-01 14:41 | 53.35107 | -2.27265 | 238 ft | 2 kts | 193° |
| 2026-05-01 14:41 | 53.35077 | -2.27275 | 238 ft | 7 kts | 191° |
| 2026-05-01 14:42 | 53.35018 | -2.27307 | 237 ft | 10 kts | 216° |
| 2026-05-01 14:42 | 53.34963 | -2.27422 | 238 ft | 18 kts | 231° |
| 2026-05-01 14:42 | 53.34704 | -2.27956 | 230 ft | 101 kts | 231° |
| 2026-05-01 14:42 | 53.34113 | -2.29177 | 287 ft | 160 kts | 231° |
| 2026-05-01 14:43 | 53.33413 | -2.30592 | 1084 ft | 158 kts | 231° |
| 2026-05-01 14:43 | 53.32725 | -2.32041 | 2007 ft | 159 kts | 232° |
| 2026-05-01 14:43 | 53.32032 | -2.33501 | 2908 ft | 162 kts | 234° |
| 2026-05-01 14:43 | 53.31690 | -2.35272 | 3793 ft | 163 kts | 270° |
| 2026-05-01 14:44 | 53.31857 | -2.37183 | 4554 ft | 174 kts | 284° |
| 2026-05-01 14:44 | 53.32353 | -2.41888 | 4851 ft | 218 kts | 257° |
| 2026-05-01 14:44 | 53.31692 | -2.43983 | 4876 ft | 201 kts | 222° |
| 2026-05-01 14:45 | 53.30514 | -2.44948 | 4874 ft | 183 kts | 187° |
| 2026-05-01 14:45 | 53.27693 | -2.43854 | 5200 ft | 231 kts | 160° |
| 2026-05-01 14:45 | 53.26192 | -2.43055 | 5099 ft | 222 kts | 160° |
| 2026-05-01 14:46 | 53.24706 | -2.42181 | 4856 ft | 230 kts | 160° |
| 2026-05-01 14:46 | 53.21574 | -2.39987 | 5222 ft | 266 kts | 154° |
| 2026-05-01 14:46 | 53.19894 | -2.38588 | 6127 ft | 272 kts | 153° |
| 2026-05-01 14:47 | 53.18202 | -2.37127 | 7127 ft | 275 kts | 153° |
| 2026-05-01 14:47 | 53.16488 | -2.35630 | 8092 ft | 280 kts | 153° |
| 2026-05-01 14:47 | 53.15031 | -2.34358 | 8900 ft | 283 kts | 153° |
| 2026-05-01 14:48 | 53.11475 | -2.31257 | 10560 ft | 301 kts | 153° |
| 2026-05-01 14:48 | 53.09550 | -2.29584 | 10916 ft | 324 kts | 153° |
| 2026-05-01 14:48 | 53.05366 | -2.25952 | 12209 ft | 345 kts | 153° |
| 2026-05-01 14:49 | 53.01049 | -2.22211 | 13852 ft | 354 kts | 153° |
| 2026-05-01 14:49 | 52.96637 | -2.18388 | 15386 ft | 362 kts | 153° |
| 2026-05-01 14:50 | 52.93656 | -2.15805 | 16367 ft | 367 kts | 153° |
| 2026-05-01 14:50 | 52.87501 | -2.10489 | 18204 ft | 378 kts | 153° |
| 2026-05-01 14:51 | 52.85187 | -2.08495 | 18740 ft | 382 kts | 153° |
| 2026-05-01 14:51 | 52.80453 | -2.04421 | 18998 ft | 384 kts | 153° |
| 2026-05-01 14:52 | 52.75713 | -2.00352 | 19001 ft | 384 kts | 153° |
| 2026-05-01 14:52 | 52.73341 | -1.98320 | 18999 ft | 384 kts | 153° |
| 2026-05-01 14:52 | 52.68593 | -1.94259 | 19000 ft | 384 kts | 153° |
| 2026-05-01 14:53 | 52.66254 | -1.92263 | 19000 ft | 383 kts | 153° |
| 2026-05-01 14:53 | 52.63884 | -1.90242 | 19003 ft | 384 kts | 153° |
| 2026-05-01 14:53 | 52.61515 | -1.88225 | 19000 ft | 383 kts | 153° |
| 2026-05-01 14:53 | 52.59144 | -1.86209 | 19000 ft | 383 kts | 153° |
| 2026-05-01 14:54 | 52.56771 | -1.84193 | 19000 ft | 383 kts | 153° |
| 2026-05-01 14:54 | 52.54396 | -1.82179 | 19002 ft | 383 kts | 153° |
| 2026-05-01 14:54 | 52.52025 | -1.80169 | 18999 ft | 383 kts | 153° |
| 2026-05-01 14:54 | 52.49682 | -1.78187 | 18999 ft | 383 kts | 153° |
| 2026-05-01 14:55 | 52.47312 | -1.76183 | 19000 ft | 383 kts | 153° |
| 2026-05-01 14:55 | 52.44941 | -1.74181 | 19001 ft | 383 kts | 153° |
| 2026-05-01 14:55 | 52.42566 | -1.72178 | 18999 ft | 383 kts | 153° |
| 2026-05-01 14:55 | 52.40193 | -1.70180 | 19001 ft | 383 kts | 153° |
| 2026-05-01 14:56 | 52.37815 | -1.68180 | 19000 ft | 383 kts | 153° |
| 2026-05-01 14:56 | 52.35517 | -1.65969 | 18999 ft | 383 kts | 145° |
| 2026-05-01 14:56 | 52.33423 | -1.63264 | 19000 ft | 384 kts | 139° |
| 2026-05-01 14:56 | 52.31413 | -1.60400 | 19000 ft | 384 kts | 139° |
| 2026-05-01 14:57 | 52.29397 | -1.57541 | 18999 ft | 384 kts | 139° |
| 2026-05-01 14:57 | 52.25355 | -1.51843 | 18999 ft | 384 kts | 139° |
| 2026-05-01 14:57 | 52.23333 | -1.49003 | 18910 ft | 381 kts | 139° |
| 2026-05-01 14:58 | 52.21325 | -1.46187 | 18565 ft | 380 kts | 139° |
| 2026-05-01 14:58 | 52.19353 | -1.43427 | 18088 ft | 377 kts | 139° |
| 2026-05-01 14:58 | 52.17365 | -1.40646 | 17547 ft | 375 kts | 140° |
| 2026-05-01 14:58 | 52.15393 | -1.37893 | 17006 ft | 372 kts | 140° |
| 2026-05-01 14:59 | 52.13437 | -1.35164 | 16409 ft | 368 kts | 140° |
| 2026-05-01 14:59 | 52.11498 | -1.32461 | 15785 ft | 365 kts | 140° |
| 2026-05-01 14:59 | 52.09577 | -1.29786 | 15255 ft | 359 kts | 140° |
| 2026-05-01 14:59 | 52.07680 | -1.27148 | 15060 ft | 360 kts | 140° |
| 2026-05-01 15:00 | 52.03853 | -1.21836 | 15000 ft | 362 kts | 140° |
| 2026-05-01 15:00 | 52.01939 | -1.19184 | 14999 ft | 362 kts | 140° |
| 2026-05-01 15:00 | 52.00047 | -1.16564 | 14999 ft | 362 kts | 140° |
| 2026-05-01 15:01 | 51.98134 | -1.13906 | 14998 ft | 362 kts | 140° |
| 2026-05-01 15:01 | 51.96222 | -1.11249 | 15001 ft | 362 kts | 140° |
| 2026-05-01 15:01 | 51.94340 | -1.08640 | 14999 ft | 347 kts | 140° |
| 2026-05-01 15:01 | 51.92550 | -1.06166 | 14995 ft | 330 kts | 140° |
| 2026-05-01 15:02 | 51.90837 | -1.03804 | 14867 ft | 316 kts | 140° |
| 2026-05-01 15:02 | 51.90297 | -1.03061 | 14817 ft | 310 kts | 140° |
| 2026-05-01 15:02 | 51.87674 | -0.99455 | 14562 ft | 281 kts | 140° |
| 2026-05-01 15:02 | 51.86214 | -0.97453 | 14269 ft | 271 kts | 140° |
| 2026-05-01 15:03 | 51.84791 | -0.95504 | 14067 ft | 270 kts | 140° |
| 2026-05-01 15:03 | 51.83359 | -0.93543 | 14012 ft | 273 kts | 140° |
| 2026-05-01 15:03 | 51.81916 | -0.91564 | 13999 ft | 271 kts | 140° |
| 2026-05-01 15:03 | 51.80478 | -0.89593 | 13996 ft | 272 kts | 140° |
| 2026-05-01 15:04 | 51.79048 | -0.87600 | 13988 ft | 272 kts | 134° |
| 2026-05-01 15:04 | 51.78049 | -0.85059 | 13841 ft | 269 kts | 109° |
| 2026-05-01 15:04 | 51.77502 | -0.82170 | 13523 ft | 269 kts | 106° |
| 2026-05-01 15:04 | 51.76996 | -0.79263 | 13073 ft | 268 kts | 105° |
| 2026-05-01 15:05 | 51.76495 | -0.76371 | 12630 ft | 266 kts | 106° |
| 2026-05-01 15:05 | 51.75991 | -0.73512 | 12167 ft | 264 kts | 106° |
| 2026-05-01 15:05 | 51.75482 | -0.70674 | 11666 ft | 263 kts | 106° |
| 2026-05-01 15:05 | 51.74970 | -0.67849 | 11184 ft | 261 kts | 106° |
| 2026-05-01 15:06 | 51.74461 | -0.65052 | 10712 ft | 259 kts | 106° |
| 2026-05-01 15:06 | 51.73954 | -0.62269 | 10256 ft | 258 kts | 107° |
| 2026-05-01 15:06 | 51.73445 | -0.59487 | 9843 ft | 260 kts | 106° |
| 2026-05-01 15:06 | 51.72932 | -0.56679 | 9286 ft | 262 kts | 106° |
| 2026-05-01 15:07 | 51.72347 | -0.53946 | 8737 ft | 262 kts | 120° |
| 2026-05-01 15:07 | 51.71336 | -0.51511 | 8240 ft | 260 kts | 126° |
| 2026-05-01 15:07 | 51.70309 | -0.49188 | 8052 ft | 248 kts | 126° |
| 2026-05-01 15:07 | 51.69310 | -0.46934 | 8008 ft | 249 kts | 126° |
| 2026-05-01 15:08 | 51.68301 | -0.44657 | 8003 ft | 249 kts | 126° |
| 2026-05-01 15:08 | 51.67295 | -0.42388 | 7998 ft | 248 kts | 126° |
| 2026-05-01 15:08 | 51.66291 | -0.40122 | 8000 ft | 248 kts | 126° |
| 2026-05-01 15:08 | 51.65285 | -0.37855 | 8001 ft | 248 kts | 126° |
| 2026-05-01 15:09 | 51.64293 | -0.35621 | 7996 ft | 248 kts | 126° |
| 2026-05-01 15:09 | 51.63295 | -0.33376 | 7853 ft | 247 kts | 126° |
| 2026-05-01 15:09 | 51.62286 | -0.31105 | 7497 ft | 250 kts | 126° |
| 2026-05-01 15:09 | 51.61272 | -0.28825 | 7141 ft | 250 kts | 126° |
| 2026-05-01 15:10 | 51.60395 | -0.26463 | 6956 ft | 244 kts | 108° |
| 2026-05-01 15:10 | 51.59705 | -0.21163 | 6267 ft | 240 kts | 101° |
| 2026-05-01 15:10 | 51.59389 | -0.18502 | 5921 ft | 243 kts | 101° |
| 2026-05-01 15:11 | 51.59180 | -0.16737 | 5687 ft | 241 kts | 101° |
| 2026-05-01 15:11 | 51.58438 | -0.10649 | 4872 ft | 238 kts | 107° |
| 2026-05-01 15:11 | 51.57662 | -0.08332 | 4521 ft | 236 kts | 125° |
| 2026-05-01 15:12 | 51.56707 | -0.06179 | 4173 ft | 235 kts | 126° |
| 2026-05-01 15:12 | 51.55127 | -0.02639 | 3833 ft | 227 kts | 126° |
| 2026-05-01 15:12 | 51.54248 | -0.00669 | 3830 ft | 207 kts | 126° |
| 2026-05-01 15:13 | 51.50984 | 0.02366 | 3831 ft | 192 kts | 181° |
| 2026-05-01 15:14 | 51.48825 | 0.00337 | 3846 ft | 192 kts | 239° |
| 2026-05-01 15:14 | 51.48160 | -0.01503 | 3837 ft | 190 kts | 241° |
| 2026-05-01 15:14 | 51.47883 | -0.05598 | 3830 ft | 187 kts | 277° |
| 2026-05-01 15:15 | 51.48006 | -0.09462 | 3839 ft | 170 kts | 270° |
| 2026-05-01 15:15 | 51.47985 | -0.13220 | 3713 ft | 169 kts | 269° |
| 2026-05-01 15:16 | 51.47957 | -0.16957 | 3267 ft | 166 kts | 269° |
| 2026-05-01 15:16 | 51.47933 | -0.20661 | 2840 ft | 166 kts | 269° |
| 2026-05-01 15:17 | 51.47910 | -0.24340 | 2406 ft | 165 kts | 269° |
| 2026-05-01 15:18 | 51.47875 | -0.29793 | 1764 ft | 161 kts | 269° |
| 2026-05-01 15:18 | 51.47863 | -0.31620 | 1543 ft | 170 kts | 269° |
| 2026-05-01 15:19 | 51.47806 | -0.36735 | 914 ft | 143 kts | 269° |
| 2026-05-01 15:19 | 51.47781 | -0.39875 | 645 ft | 141 kts | 270° |
| 2026-05-01 15:19 | 51.47784 | -0.41452 | 424 ft | 141 kts | 270° |
| 2026-05-01 15:20 | 51.47761 | -0.44463 | 90 ft | 122 kts | 270° |
| 2026-05-01 15:20 | 51.47758 | -0.45543 | 87 ft | 70 kts | 269° |
| 2026-05-01 15:20 | 51.47746 | -0.45774 | 83 ft | 17 kts | 254° |
| 2026-05-01 15:21 | 51.47656 | -0.45963 | 86 ft | 25 kts | 223° |
| 2026-05-01 15:21 | 51.47632 | -0.45996 | 87 ft | 0 kts | 220° |
| 2026-05-01 15:21 | 51.47608 | -0.46029 | 85 ft | 8 kts | 220° |
| 2026-05-01 15:21 | 51.47592 | -0.46050 | 89 ft | 2 kts | 220° |
| 2026-05-01 15:22 | 51.47544 | -0.46093 | 88 ft | 7 kts | 200° |
| 2026-05-01 15:22 | 51.47517 | -0.46137 | 88 ft | 7 kts | 249° |
| 2026-05-01 15:22 | 51.47517 | -0.46227 | 87 ft | 12 kts | 269° |
| 2026-05-01 15:23 | 51.47516 | -0.46392 | 87 ft | 16 kts | 270° |
| 2026-05-01 15:23 | 51.47516 | -0.46573 | 89 ft | 17 kts | 269° |
| 2026-05-01 15:23 | 51.47515 | -0.46716 | 87 ft | 1 kts | 262° |
| 2026-05-01 15:23 | 51.47507 | -0.46754 | 90 ft | 7 kts | 249° |
| 2026-05-01 15:24 | 51.47497 | -0.46878 | 87 ft | 13 kts | 264° |
| 2026-05-01 15:24 | 51.47493 | -0.47031 | 89 ft | 15 kts | 269° |
| 2026-05-01 15:24 | 51.47492 | -0.47214 | 87 ft | 18 kts | 270° |
| 2026-05-01 15:24 | 51.47491 | -0.47424 | 87 ft | 18 kts | 269° |
| 2026-05-01 15:25 | 51.47491 | -0.47628 | 88 ft | 20 kts | 270° |
| 2026-05-01 15:25 | 51.47489 | -0.47868 | 87 ft | 23 kts | 270° |
| 2026-05-01 15:25 | 51.47491 | -0.48123 | 88 ft | 24 kts | 270° |
| 2026-05-01 15:25 | 51.47486 | -0.48399 | 89 ft | 17 kts | 269° |
| 2026-05-01 15:26 | 51.47486 | -0.48439 | 91 ft | 9 kts | 270° |
| 2026-05-01 15:26 | 51.47487 | -0.48579 | 90 ft | 15 kts | 270° |
| 2026-05-01 15:26 | 51.47484 | -0.48770 | 90 ft | 19 kts | 268° |
| 2026-05-01 15:26 | 51.47427 | -0.48830 | 87 ft | 10 kts | 181° |
| 2026-05-01 15:27 | 51.47403 | -0.48831 | 88 ft | 0 kts | 178° |